createdAt,value
2022-12-14T00:00:51.237Z,21.45
2022-12-14T00:02:52.787Z,21.83
2022-12-14T00:04:54.450Z,20.30
2022-12-14T00:06:55.887Z,22.00
2022-12-14T00:09:02.200Z,21.98
2022-12-14T00:11:03.687Z,20.48
2022-12-14T00:13:06.844Z,21.80
2022-12-14T00:15:08.899Z,20.83
2022-12-14T00:17:10.402Z,20.13
2022-12-14T00:19:12.234Z,20.95
2022-12-14T00:21:14.275Z,21.70
2022-12-14T00:23:15.772Z,20.45
2022-12-14T00:25:17.339Z,21.88
2022-12-14T00:27:18.771Z,20.50
2022-12-14T00:29:20.197Z,20.98
2022-12-14T00:31:23.192Z,20.02
2022-12-14T00:33:24.737Z,19.83
2022-12-14T00:35:26.168Z,21.08
2022-12-14T00:37:27.615Z,18.50
2022-12-14T00:39:29.033Z,20.92
2022-12-14T00:41:30.471Z,20.17
2022-12-14T00:43:31.985Z,19.98
2022-12-14T00:45:33.428Z,19.08
2022-12-14T00:47:40.376Z,20.35
2022-12-14T00:49:42.216Z,19.95
2022-12-14T00:51:43.657Z,19.05
2022-12-14T00:53:45.097Z,19.60
2022-12-14T00:55:49.553Z,18.15
2022-12-14T00:57:51.178Z,18.45
2022-12-14T00:59:52.601Z,19.65
2022-12-14T01:01:54.176Z,19.58
2022-12-14T01:04:15.886Z,19.80
2022-12-14T01:06:20.151Z,18.05
2022-12-14T01:08:21.821Z,15.98
2022-12-14T01:10:23.440Z,19.30
2022-12-14T01:12:24.998Z,17.13
2022-12-14T01:14:26.434Z,18.02
2022-12-14T01:16:28.169Z,18.70
2022-12-14T01:18:29.643Z,18.20
2022-12-14T01:20:31.149Z,17.50
2022-12-14T01:22:32.587Z,17.38
2022-12-14T01:24:34.005Z,19.08
2022-12-14T01:26:40.212Z,16.88
2022-12-14T01:28:42.284Z,17.33
2022-12-14T01:30:43.747Z,17.25
2022-12-14T01:32:46.098Z,18.35
2022-12-14T01:34:51.176Z,17.25
2022-12-14T01:36:52.617Z,17.75
2022-12-14T01:38:56.613Z,15.15
2022-12-14T01:40:58.773Z,16.73
2022-12-14T01:43:00.258Z,16.40
2022-12-14T01:45:01.947Z,17.02
2022-12-14T01:47:24.463Z,16.67
2022-12-14T01:49:32.082Z,15.38
2022-12-14T01:51:36.340Z,16.42
2022-12-14T01:53:37.892Z,16.95
2022-12-14T01:55:42.958Z,16.30
2022-12-14T01:58:07.050Z,15.60
2022-12-14T02:00:10.802Z,16.95
2022-12-14T02:02:14.794Z,17.30
2022-12-14T02:04:19.058Z,15.57
2022-12-14T02:06:33.852Z,16.20
2022-12-14T02:08:36.210Z,15.65
2022-12-14T02:10:38.017Z,15.82
2022-12-14T02:12:44.182Z,16.05
2022-12-14T02:14:47.090Z,16.42
2022-12-14T02:16:55.097Z,16.02
2022-12-14T02:18:56.576Z,16.23
2022-12-14T02:21:36.768Z,16.70
2022-12-14T02:23:50.063Z,16.85
2022-12-14T02:26:34.074Z,16.17
2022-12-14T02:29:12.782Z,16.15
2022-12-14T02:31:33.300Z,14.85
2022-12-14T02:33:52.682Z,15.88
2022-12-14T02:36:15.887Z,16.60
2022-12-14T02:38:42.702Z,16.23
2022-12-14T02:41:07.306Z,17.48
2022-12-14T02:43:27.790Z,16.92
2022-12-14T02:45:53.029Z,17.63
2022-12-14T02:48:06.986Z,18.15
2022-12-14T02:50:24.037Z,17.88
2022-12-14T02:52:28.561Z,18.10
2022-12-14T02:54:44.289Z,18.63
2022-12-14T02:56:57.779Z,17.63
2022-12-14T02:59:02.105Z,17.65
2022-12-14T03:01:04.298Z,17.25
2022-12-14T03:03:06.728Z,18.58
2022-12-14T03:05:09.130Z,17.45
2022-12-14T03:07:48.872Z,18.27
2022-12-14T03:09:52.173Z,17.25
2022-12-14T03:12:00.871Z,17.55
2022-12-14T03:16:19.780Z,14.45
2022-12-14T03:18:24.880Z,15.05
2022-12-14T03:20:30.983Z,16.05
2022-12-14T03:22:43.588Z,15.48
2022-12-14T03:24:52.494Z,15.98
2022-12-14T03:27:05.080Z,15.57
2022-12-14T03:29:15.491Z,14.80
2022-12-14T03:31:35.838Z,16.40
2022-12-14T03:33:39.879Z,15.27
2022-12-14T03:36:06.565Z,16.25
2022-12-14T03:38:16.996Z,15.63
2022-12-14T03:40:19.552Z,15.80
2022-12-14T03:42:30.944Z,15.90
2022-12-14T03:44:50.007Z,15.85
2022-12-14T03:47:11.746Z,14.25
2022-12-14T03:49:41.091Z,16.27
2022-12-14T03:51:50.009Z,15.30
2022-12-14T03:54:11.210Z,14.50
2022-12-14T03:56:30.587Z,15.07
2022-12-14T03:58:50.013Z,15.45
2022-12-14T04:01:00.730Z,14.55
2022-12-14T04:03:10.086Z,16.58
2022-12-14T04:05:38.067Z,13.73
2022-12-14T04:07:49.057Z,15.93
2022-12-14T04:09:54.165Z,16.20
2022-12-14T04:12:28.244Z,15.35
2022-12-14T04:14:55.733Z,15.25
2022-12-14T04:17:18.980Z,14.95
2022-12-14T04:19:27.131Z,13.70
2022-12-14T04:21:36.618Z,14.77
2022-12-14T04:24:05.407Z,14.85
2022-12-14T04:26:13.001Z,14.18
2022-12-14T04:28:54.111Z,14.93
2022-12-14T04:30:59.758Z,13.70
2022-12-14T04:33:27.304Z,14.07
2022-12-14T04:35:39.762Z,13.73
2022-12-14T04:37:45.064Z,13.63
2022-12-14T04:40:08.538Z,14.80
2022-12-14T04:42:13.973Z,13.20
2022-12-14T04:44:30.627Z,14.20
2022-12-14T04:46:40.374Z,13.20
2022-12-14T04:48:48.735Z,14.95
2022-12-14T04:51:00.229Z,13.95
2022-12-14T04:53:10.964Z,14.18
2022-12-14T04:55:34.366Z,14.10
2022-12-14T04:57:49.640Z,13.88
2022-12-14T04:59:51.644Z,13.73
2022-12-14T05:02:17.130Z,15.07
2022-12-14T05:04:40.118Z,14.32
2022-12-14T05:06:50.699Z,13.45
2022-12-14T05:09:09.698Z,12.88
2022-12-14T05:11:53.137Z,14.73
2022-12-14T05:13:49.560Z,14.02
2022-12-14T05:15:56.341Z,13.45
2022-12-14T05:18:03.051Z,13.43
2022-12-14T05:20:05.677Z,13.35
2022-12-14T05:22:08.222Z,14.55
2022-12-14T05:24:09.711Z,13.27
2022-12-14T05:26:11.154Z,13.68
2022-12-14T05:28:12.987Z,14.05
2022-12-14T05:30:14.778Z,14.52
2022-12-14T05:32:16.306Z,13.25
2022-12-14T05:34:18.125Z,13.35
2022-12-14T05:36:19.879Z,13.13
2022-12-14T05:38:21.356Z,13.75
2022-12-14T05:40:22.783Z,13.10
2022-12-14T05:42:24.318Z,14.07
2022-12-14T05:44:25.741Z,14.82
2022-12-14T05:46:27.302Z,15.77
2022-12-14T05:48:29.897Z,14.40
2022-12-14T05:50:31.723Z,13.32
2022-12-14T05:52:33.155Z,14.05
2022-12-14T05:54:34.577Z,12.88
2022-12-14T05:56:36.110Z,14.30
2022-12-14T05:58:38.433Z,14.10
2022-12-14T06:00:40.105Z,12.73
2022-12-14T06:02:41.597Z,13.65
2022-12-14T06:04:43.153Z,13.93
2022-12-14T06:06:44.731Z,14.55
2022-12-14T06:08:46.749Z,12.70
2022-12-14T06:10:48.266Z,12.93
2022-12-14T06:12:50.037Z,14.32
2022-12-14T06:14:51.520Z,12.38
2022-12-14T06:16:53.056Z,14.00
2022-12-14T06:18:59.811Z,13.82
2022-12-14T06:21:01.340Z,13.82
2022-12-14T06:23:03.001Z,14.38
2022-12-14T06:25:04.689Z,14.60
2022-12-14T06:27:06.500Z,13.77
2022-12-14T06:29:14.054Z,13.88
2022-12-14T06:31:18.853Z,13.35
2022-12-14T06:33:20.446Z,13.27
2022-12-14T06:35:21.871Z,13.88
2022-12-14T06:37:23.323Z,13.57
2022-12-14T06:39:24.795Z,15.50
2022-12-14T06:41:26.233Z,14.38
2022-12-14T06:43:28.100Z,13.85
2022-12-14T06:45:30.205Z,14.57
2022-12-14T06:47:31.623Z,13.60
2022-12-14T06:49:33.135Z,13.52
2022-12-14T06:51:40.759Z,13.52
2022-12-14T06:53:42.182Z,8.93
2022-12-14T06:55:43.716Z,11.90
2022-12-14T06:57:51.613Z,13.68
2022-12-14T06:59:53.051Z,13.35
2022-12-14T07:01:54.562Z,13.98
2022-12-14T07:03:57.964Z,12.80
2022-12-14T07:06:01.393Z,13.82
2022-12-14T07:08:04.046Z,13.43
2022-12-14T07:10:06.998Z,13.57
2022-12-14T07:12:08.434Z,12.93
2022-12-14T07:14:16.251Z,13.20
2022-12-14T07:16:21.164Z,13.48
2022-12-14T07:18:23.178Z,12.70
2022-12-14T07:20:24.627Z,12.18
2022-12-14T07:22:26.093Z,12.30
2022-12-14T07:24:27.538Z,13.70
2022-12-14T07:26:30.070Z,13.18
2022-12-14T07:28:32.354Z,12.85
2022-12-14T07:30:33.806Z,13.40
2022-12-14T07:32:35.252Z,13.05
2022-12-14T07:34:36.710Z,12.90
2022-12-14T07:36:38.205Z,12.07
2022-12-14T07:38:41.363Z,13.40
2022-12-14T07:40:43.422Z,12.05
2022-12-14T07:42:49.349Z,12.38
2022-12-14T07:44:50.847Z,12.13
2022-12-14T07:46:53.382Z,12.27
2022-12-14T07:48:56.494Z,12.20
2022-12-14T07:51:07.235Z,12.73
2022-12-14T07:53:08.650Z,14.02
2022-12-14T07:55:10.097Z,12.68
2022-12-14T07:57:11.532Z,13.00
2022-12-14T07:59:16.072Z,13.38
2022-12-14T08:01:20.604Z,13.65
2022-12-14T08:03:22.122Z,13.02
2022-12-14T08:05:23.567Z,13.85
2022-12-14T08:07:25.131Z,13.55
2022-12-14T08:09:26.690Z,12.02
2022-12-14T08:11:28.903Z,13.50
2022-12-14T08:13:31.222Z,12.95
2022-12-14T08:15:37.456Z,13.48
2022-12-14T08:17:38.892Z,13.55
2022-12-14T08:19:40.323Z,13.20
2022-12-14T08:21:42.120Z,13.05
2022-12-14T08:23:43.550Z,13.48
2022-12-14T08:25:45.008Z,12.68
2022-12-14T08:27:46.487Z,13.25
2022-12-14T08:29:48.023Z,13.38
2022-12-14T08:31:49.542Z,13.50
2022-12-14T08:33:51.834Z,13.27
2022-12-14T08:35:53.281Z,12.80
2022-12-14T08:37:54.750Z,13.43
2022-12-14T08:39:56.183Z,12.77
2022-12-14T08:41:57.652Z,14.18
2022-12-14T08:44:01.292Z,13.75
2022-12-14T08:46:03.721Z,13.00
2022-12-14T08:48:05.333Z,13.73
2022-12-14T08:50:07.087Z,12.45
2022-12-14T08:52:10.551Z,13.57
2022-12-14T08:54:12.059Z,13.88
2022-12-14T08:56:15.815Z,14.70
2022-12-14T08:58:17.289Z,13.55
2022-12-14T09:00:18.944Z,13.57
2022-12-14T09:02:20.646Z,13.85
2022-12-14T09:04:22.440Z,14.52
2022-12-14T09:06:27.748Z,13.98
2022-12-14T09:08:29.177Z,14.10
2022-12-14T09:10:30.794Z,14.75
2022-12-14T09:12:32.337Z,15.73
2022-12-14T09:14:34.455Z,15.23
2022-12-14T09:16:37.602Z,15.23
2022-12-14T09:18:39.463Z,14.20
2022-12-14T09:20:43.282Z,15.02
2022-12-14T09:22:45.850Z,15.75
2022-12-14T09:24:48.011Z,15.70
2022-12-14T09:26:50.515Z,16.13
2022-12-14T09:28:55.856Z,15.07
2022-12-14T09:31:00.081Z,14.93
2022-12-14T09:33:01.510Z,14.68
2022-12-14T09:35:02.982Z,14.10
2022-12-14T09:37:07.368Z,14.18
2022-12-14T09:39:08.894Z,15.02
2022-12-14T09:41:34.577Z,15.55
2022-12-14T09:43:39.015Z,13.98
2022-12-14T09:45:51.098Z,14.05
2022-12-14T09:48:06.586Z,14.02
2022-12-14T09:50:20.410Z,12.88
2022-12-14T09:52:40.669Z,14.75
2022-12-14T09:54:44.393Z,13.70
2022-12-14T09:56:46.065Z,14.38
2022-12-14T09:58:54.557Z,14.40
2022-12-14T10:01:22.497Z,14.43
2022-12-14T10:03:36.933Z,14.20
2022-12-14T10:05:50.506Z,13.77
2022-12-14T10:08:23.964Z,13.77
2022-12-14T10:10:31.637Z,13.68
2022-12-14T10:12:59.112Z,14.67
2022-12-14T10:15:25.032Z,14.80
2022-12-14T10:17:48.243Z,13.45
2022-12-14T10:19:55.533Z,13.38
2022-12-14T10:22:17.938Z,13.95
2022-12-14T10:24:27.389Z,14.80
2022-12-14T10:26:45.752Z,13.60
2022-12-14T10:29:01.708Z,13.55
2022-12-14T10:31:07.997Z,14.07
2022-12-14T10:33:31.636Z,13.57
2022-12-14T10:35:51.803Z,14.05
2022-12-14T10:38:11.364Z,15.40
2022-12-14T10:40:29.196Z,17.40
2022-12-14T10:43:04.010Z,14.35
2022-12-14T10:47:39.729Z,14.27
2022-12-14T10:49:57.368Z,14.90
2022-12-14T10:52:16.902Z,14.87
2022-12-14T10:54:21.065Z,14.18
2022-12-14T10:56:35.187Z,14.00
2022-12-14T10:58:36.689Z,15.38
2022-12-14T11:00:38.486Z,17.27
2022-12-14T11:02:43.367Z,16.30
2022-12-14T11:04:58.424Z,14.25
2022-12-14T11:07:03.125Z,12.20
2022-12-14T11:09:20.519Z,13.85
2022-12-14T11:11:24.797Z,12.27
2022-12-14T11:13:26.339Z,11.23
2022-12-14T11:15:42.359Z,11.05
2022-12-14T11:17:44.333Z,10.93
2022-12-14T11:20:05.096Z,10.52
2022-12-14T11:22:20.266Z,11.25
2022-12-14T11:24:28.559Z,10.45
2022-12-14T11:26:42.360Z,10.52
2022-12-14T11:28:50.394Z,10.73
2022-12-14T11:30:59.621Z,10.98
2022-12-14T11:33:01.259Z,10.80
2022-12-14T11:35:02.816Z,10.93
2022-12-14T11:37:22.931Z,10.07
2022-12-14T11:39:25.193Z,10.65
2022-12-14T11:41:37.958Z,11.23
2022-12-14T11:43:39.625Z,10.38
2022-12-14T11:45:41.099Z,10.75
2022-12-14T11:47:42.589Z,11.48
2022-12-14T11:49:48.908Z,11.25
2022-12-14T11:52:05.412Z,10.75
2022-12-14T11:54:07.831Z,10.38
2022-12-14T11:56:17.334Z,10.18
2022-12-14T11:58:22.900Z,11.10
2022-12-14T12:00:41.319Z,10.02
2022-12-14T12:02:57.887Z,11.23
2022-12-14T12:05:14.530Z,12.57
2022-12-14T12:07:26.107Z,11.80
2022-12-14T12:09:31.024Z,11.65
2022-12-14T12:11:34.948Z,11.18
2022-12-14T12:13:41.935Z,11.27
2022-12-14T12:15:52.265Z,11.75
2022-12-14T12:17:59.261Z,11.45
2022-12-14T12:20:00.794Z,11.38
2022-12-14T12:22:04.230Z,10.90
2022-12-14T12:24:27.068Z,11.27
2022-12-14T12:26:35.392Z,10.80
2022-12-14T12:28:43.135Z,10.68
2022-12-14T12:30:49.757Z,11.25
2022-12-14T12:32:53.593Z,10.57
2022-12-14T12:35:12.396Z,11.00
2022-12-14T12:37:26.424Z,10.70
2022-12-14T12:39:30.733Z,10.95
2022-12-14T12:41:47.477Z,11.43
2022-12-14T12:44:06.481Z,10.90
2022-12-14T12:46:28.267Z,11.20
2022-12-14T12:48:39.936Z,14.35
2022-12-14T12:50:51.266Z,12.80
2022-12-14T12:53:00.967Z,11.65
2022-12-14T12:55:17.650Z,11.52
2022-12-14T12:57:20.437Z,10.77
2022-12-14T12:59:31.095Z,11.70
2022-12-14T13:01:45.161Z,11.77
2022-12-14T13:04:00.467Z,11.13
2022-12-14T13:06:21.950Z,11.05
2022-12-14T13:08:30.617Z,11.88
2022-12-14T13:10:34.271Z,11.13
2022-12-14T13:12:44.225Z,12.23
2022-12-14T13:14:52.759Z,11.82
2022-12-14T13:16:55.579Z,11.38
2022-12-14T13:19:48.847Z,11.18
2022-12-14T13:21:49.660Z,10.63
2022-12-14T13:23:51.664Z,11.23
2022-12-14T13:26:18.993Z,11.05
2022-12-14T13:28:51.172Z,10.48
2022-12-14T13:31:03.549Z,10.98
2022-12-14T13:33:43.013Z,10.40
2022-12-14T13:35:53.224Z,10.48
2022-12-14T13:38:13.065Z,10.48
2022-12-14T13:40:31.489Z,10.50
2022-12-14T13:43:23.807Z,11.23
2022-12-14T13:45:39.784Z,10.88
2022-12-14T13:47:48.475Z,10.18
2022-12-14T13:52:41.920Z,11.00
2022-12-14T13:54:47.174Z,10.48
2022-12-14T13:56:49.157Z,11.43
2022-12-14T13:58:52.016Z,10.70
2022-12-14T14:01:11.855Z,10.77
2022-12-14T14:03:35.269Z,10.63
2022-12-14T14:05:43.329Z,10.20
2022-12-14T14:08:02.333Z,10.55
2022-12-14T14:10:34.200Z,11.20
2022-12-14T14:12:41.745Z,10.52
2022-12-14T14:14:55.890Z,10.38
2022-12-14T14:17:01.909Z,10.90
2022-12-14T14:19:09.299Z,11.32
2022-12-14T14:21:13.828Z,10.98
2022-12-14T14:23:18.210Z,10.88
2022-12-14T14:25:38.679Z,11.98
2022-12-14T14:27:50.230Z,13.02
2022-12-14T14:29:52.618Z,14.77
2022-12-14T14:31:57.959Z,12.80
2022-12-14T14:34:00.413Z,13.30
2022-12-14T14:38:55.972Z,13.57
2022-12-14T14:41:18.014Z,12.38
2022-12-14T14:43:27.579Z,11.90
2022-12-14T14:45:39.700Z,11.77
2022-12-14T14:47:42.308Z,14.45
2022-12-14T14:49:44.362Z,13.60
2022-12-14T14:51:45.809Z,14.55
2022-12-14T14:53:50.270Z,13.52
2022-12-14T14:56:30.178Z,14.00
2022-12-14T14:58:34.172Z,14.57
2022-12-14T15:00:50.598Z,12.60
2022-12-14T15:02:54.467Z,12.30
2022-12-14T15:05:05.468Z,12.27
2022-12-14T15:07:37.176Z,12.00
2022-12-14T15:09:46.570Z,12.18
2022-12-14T15:11:53.691Z,11.88
2022-12-14T15:14:33.152Z,12.95
2022-12-14T15:16:44.984Z,14.38
2022-12-14T15:18:46.483Z,14.10
2022-12-14T15:21:03.149Z,13.73
2022-12-14T15:23:06.133Z,12.93
2022-12-14T15:25:14.153Z,13.13
2022-12-14T15:27:34.775Z,12.82
2022-12-14T15:29:36.389Z,12.93
2022-12-14T15:31:42.489Z,13.77
2022-12-14T15:33:47.788Z,13.60
2022-12-14T15:35:49.638Z,13.75
2022-12-14T15:37:59.973Z,13.65
2022-12-14T15:40:07.818Z,12.32
2022-12-14T15:42:12.823Z,14.90
2022-12-14T15:44:22.009Z,15.80
2022-12-14T15:46:27.853Z,16.63
2022-12-14T15:48:32.870Z,17.63
2022-12-14T15:50:35.162Z,16.27
2022-12-14T15:52:36.663Z,15.50
2022-12-14T15:54:38.308Z,15.35
2022-12-14T15:56:41.959Z,20.90
2022-12-14T15:58:44.248Z,33.95
2022-12-14T16:00:49.392Z,26.80
2022-12-14T16:02:51.350Z,28.45
2022-12-14T16:04:55.083Z,26.75
2022-12-14T16:07:08.117Z,21.25
2022-12-14T16:09:26.069Z,18.35
2022-12-14T16:11:44.458Z,17.88
2022-12-14T16:13:46.988Z,19.00
2022-12-14T16:15:49.383Z,27.60
2022-12-14T16:18:00.709Z,22.30
2022-12-14T16:20:23.684Z,23.00
2022-12-14T16:22:30.316Z,27.83
2022-12-14T16:24:31.864Z,29.80
2022-12-14T16:26:37.545Z,29.75
2022-12-14T16:28:39.030Z,20.40
2022-12-14T16:31:02.676Z,22.65
2022-12-14T16:33:17.605Z,20.15
2022-12-14T16:35:28.031Z,21.20
2022-12-14T16:37:33.017Z,22.08
2022-12-14T16:39:44.220Z,24.95
2022-12-14T16:41:57.078Z,24.83
2022-12-14T16:44:01.817Z,24.55
2022-12-14T16:46:03.277Z,21.52
2022-12-14T16:48:18.228Z,26.75
2022-12-14T16:50:40.099Z,24.63
2022-12-14T16:52:43.518Z,22.77
2022-12-14T16:55:15.411Z,23.63
2022-12-14T16:57:20.949Z,23.05
2022-12-14T16:59:25.569Z,25.52
2022-12-14T17:01:27.732Z,24.60
2022-12-14T17:03:30.548Z,21.35
2022-12-14T17:05:35.588Z,20.48
2022-12-14T17:07:37.412Z,20.95
2022-12-14T17:09:39.992Z,25.38
2022-12-14T17:11:41.470Z,23.15
2022-12-14T17:13:42.892Z,21.95
2022-12-14T17:15:58.482Z,28.63
2022-12-14T17:18:03.830Z,29.08
2022-12-14T17:20:09.308Z,32.22
2022-12-14T17:22:18.264Z,28.15
2022-12-14T17:24:22.237Z,26.70
2022-12-14T17:26:25.574Z,26.73
2022-12-14T17:28:30.052Z,26.25
2022-12-14T17:30:31.740Z,25.55
2022-12-14T17:32:34.087Z,23.00
2022-12-14T17:34:35.553Z,22.70
2022-12-14T17:36:37.057Z,22.90
2022-12-14T17:38:38.538Z,23.27
2022-12-14T17:40:40.259Z,24.23
2022-12-14T17:42:45.905Z,23.27
2022-12-14T17:44:59.398Z,22.73
2022-12-14T17:47:00.837Z,26.45
2022-12-14T17:49:06.455Z,26.30
2022-12-14T17:51:16.455Z,27.70
2022-12-14T17:53:23.328Z,29.45
2022-12-14T17:55:27.318Z,27.02
2022-12-14T17:57:28.816Z,26.70
2022-12-14T17:59:30.438Z,28.13
2022-12-14T18:01:32.120Z,24.70
2022-12-14T18:03:36.792Z,26.13
2022-12-14T18:05:44.968Z,25.67
2022-12-14T18:07:50.330Z,22.67
2022-12-14T18:09:53.598Z,22.80
2022-12-14T18:12:22.010Z,23.25
2022-12-14T18:14:16.943Z,21.98
2022-12-14T18:16:20.360Z,23.65
2022-12-14T18:18:24.084Z,22.67
2022-12-14T18:20:26.192Z,22.80
2022-12-14T18:22:27.636Z,20.80
2022-12-14T18:24:29.090Z,22.08
2022-12-14T18:26:30.549Z,22.52
2022-12-14T18:28:32.210Z,23.52
2022-12-14T18:30:41.733Z,23.58
2022-12-14T18:32:44.620Z,23.83
2022-12-14T18:34:46.080Z,21.92
2022-12-14T18:36:47.614Z,21.63
2022-12-14T18:38:50.168Z,22.65
2022-12-14T18:40:53.300Z,21.67
2022-12-14T18:42:55.337Z,23.00
2022-12-14T18:44:56.771Z,22.83
2022-12-14T18:47:14.711Z,23.60
2022-12-14T18:49:19.642Z,21.90
2022-12-14T18:51:23.862Z,22.65
2022-12-14T18:53:26.414Z,23.02
2022-12-14T18:55:31.576Z,23.50
2022-12-14T18:57:33.076Z,22.50
2022-12-14T18:59:39.100Z,24.48
2022-12-14T19:01:43.754Z,26.92
2022-12-14T19:03:45.593Z,27.58
2022-12-14T19:05:47.647Z,29.50
2022-12-14T19:07:50.098Z,29.65
2022-12-14T19:09:51.628Z,28.98
2022-12-14T19:11:53.082Z,28.20
2022-12-14T19:13:55.206Z,29.20
2022-12-14T19:15:56.976Z,28.33
2022-12-14T19:17:59.092Z,25.70
2022-12-14T19:20:00.552Z,27.42
2022-12-14T19:22:02.006Z,25.15
2022-12-14T19:24:04.113Z,27.33
2022-12-14T19:26:05.877Z,27.02
2022-12-14T19:30:28.943Z,21.45
2022-12-14T19:32:30.450Z,22.75
2022-12-14T19:34:32.063Z,23.02
2022-12-14T19:36:33.560Z,22.10
2022-12-14T19:38:36.091Z,21.38
2022-12-14T19:40:37.612Z,23.27
2022-12-14T19:42:39.637Z,22.48
2022-12-14T19:44:41.084Z,23.80
2022-12-14T19:46:42.628Z,25.35
2022-12-14T19:48:44.671Z,23.67
2022-12-14T19:50:49.323Z,24.38
2022-12-14T19:52:52.483Z,23.77
2022-12-14T19:54:54.357Z,26.95
2022-12-14T19:56:56.019Z,24.67
2022-12-14T19:59:00.828Z,24.73
2022-12-14T20:01:07.499Z,24.90
2022-12-14T20:03:09.041Z,26.15
2022-12-14T20:05:10.770Z,28.55
2022-12-14T20:07:14.260Z,27.35
2022-12-14T20:09:17.275Z,27.13
2022-12-14T20:11:20.372Z,25.88
2022-12-14T20:13:23.288Z,24.75
2022-12-14T20:15:24.849Z,22.98
2022-12-14T20:17:26.587Z,21.00
2022-12-14T20:19:28.161Z,21.40
2022-12-14T20:21:30.065Z,22.10
2022-12-14T20:23:32.913Z,22.58
2022-12-14T20:25:34.934Z,22.35
2022-12-14T20:27:40.614Z,22.60
2022-12-14T20:29:42.803Z,22.15
2022-12-14T20:31:44.373Z,22.05
2022-12-14T20:33:45.975Z,22.17
2022-12-14T20:35:51.432Z,22.73
2022-12-14T20:37:53.744Z,23.25
2022-12-14T20:39:55.175Z,22.88
2022-12-14T20:41:56.856Z,22.52
2022-12-14T20:43:59.187Z,22.20
2022-12-14T20:46:00.677Z,22.63
2022-12-14T20:48:02.141Z,22.30
2022-12-14T20:50:04.034Z,22.35
2022-12-14T20:52:05.603Z,21.65
2022-12-14T20:54:10.711Z,21.88
2022-12-14T20:56:12.198Z,21.27
2022-12-14T20:58:13.638Z,21.83
2022-12-14T21:00:15.486Z,20.92
2022-12-14T21:02:18.672Z,20.65
2022-12-14T21:04:20.192Z,22.88
2022-12-14T21:06:23.382Z,23.23
2022-12-14T21:08:24.951Z,22.42
2022-12-14T21:10:26.512Z,20.23
2022-12-14T21:12:28.028Z,19.50
2022-12-14T21:14:32.811Z,21.27
2022-12-14T21:16:36.079Z,19.83
2022-12-14T21:18:37.603Z,19.98
2022-12-14T21:20:39.066Z,19.85
2022-12-14T21:22:40.538Z,19.55
2022-12-14T21:27:04.621Z,17.75
2022-12-14T21:29:07.905Z,17.70
2022-12-14T21:31:16.229Z,18.50
2022-12-14T21:33:17.780Z,15.30
2022-12-14T21:35:19.239Z,18.60
2022-12-14T21:37:20.911Z,16.77
2022-12-14T21:39:22.518Z,17.02
2022-12-14T21:41:42.466Z,16.45
2022-12-14T21:43:43.899Z,16.08
2022-12-14T21:45:46.189Z,15.20
2022-12-14T21:47:47.814Z,15.63
2022-12-14T21:49:49.395Z,15.00
2022-12-14T21:51:54.254Z,16.23
2022-12-14T21:53:59.262Z,15.75
2022-12-14T21:56:19.275Z,15.90
2022-12-14T21:58:20.886Z,14.80
2022-12-14T22:00:22.447Z,15.77
2022-12-14T22:02:25.655Z,15.27
2022-12-14T22:04:29.201Z,14.02
2022-12-14T22:06:32.634Z,15.15
2022-12-14T22:08:34.172Z,15.27
2022-12-14T22:10:35.629Z,15.35
2022-12-14T22:12:37.067Z,14.75
2022-12-14T22:14:38.943Z,14.18
2022-12-14T22:16:41.459Z,14.93
2022-12-14T22:18:42.928Z,13.18
2022-12-14T22:20:44.409Z,13.13
2022-12-14T22:22:45.911Z,14.35
2022-12-14T22:24:51.181Z,13.88
2022-12-14T22:26:52.889Z,14.00
2022-12-14T22:28:54.452Z,14.27
2022-12-14T22:30:55.967Z,14.40
2022-12-14T22:32:58.160Z,45.67
2022-12-14T22:34:59.767Z,34.90
2022-12-14T22:37:01.688Z,15.70
2022-12-14T22:39:03.286Z,15.02
2022-12-14T22:41:05.922Z,13.95
2022-12-14T22:43:07.357Z,13.65
2022-12-14T22:45:09.423Z,13.63
2022-12-14T22:47:10.947Z,12.93
2022-12-14T22:49:17.640Z,12.70
2022-12-14T22:51:20.252Z,13.38
2022-12-14T22:53:21.689Z,13.02
2022-12-14T22:55:24.296Z,13.40
2022-12-14T22:57:25.927Z,14.25
2022-12-14T22:59:58.175Z,13.25
2022-12-14T23:01:59.982Z,12.88
2022-12-14T23:04:02.165Z,13.63
2022-12-14T23:06:03.946Z,12.82
2022-12-14T23:08:05.821Z,12.88
2022-12-14T23:10:26.226Z,14.45
2022-12-14T23:12:46.112Z,12.52
2022-12-14T23:15:05.893Z,13.88
2022-12-14T23:17:26.324Z,14.00
2022-12-14T23:19:46.228Z,14.20
2022-12-14T23:22:06.534Z,13.95
2022-12-14T23:24:26.908Z,14.23
2022-12-14T23:26:47.353Z,13.95
2022-12-14T23:29:07.212Z,14.45
2022-12-14T23:31:27.208Z,15.02
2022-12-14T23:33:47.401Z,14.35
2022-12-14T23:36:07.608Z,14.90
2022-12-14T23:38:28.123Z,15.60
2022-12-14T23:40:48.011Z,15.52
2022-12-14T23:43:07.898Z,15.10
2022-12-14T23:45:28.264Z,14.75
2022-12-14T23:47:49.372Z,14.85
2022-12-14T23:50:09.791Z,15.27
2022-12-14T23:52:29.573Z,15.82
2022-12-14T23:54:49.978Z,13.98
2022-12-14T23:57:10.260Z,14.63
2022-12-14T23:59:32.556Z,15.18
